Nicola Andrea — IPAF — position and weather

sailwx.info

Track history (hours):
 
Tides and Currents Weather Stations Pressure Air Temp Water Temp Dewpoint Dewpoint Depression Visibility Wind Speed Wind Dir Waves Ship Positions

Nicola Andrea

Last reported at 2017-Oct-19 06:20 UTC. Time now 2017-Oct-19 09:15 UTC.
Position N 40°09' E 016°50'.

Length 21 m; draft 2.8 m.

Type: Fishing. MMSI: 247134160.

Date/timePositionNaut miles runAvg speedWind from/ knotsBaromVisibWave heightAir tempDewpointWater temp
2017-Oct-19 06:20N 40°09' E 016°50'1 2.7
2017-Oct-19 05:59N 40°10' E 016°50'1 2.6
2017-Oct-19 05:30N 40°11' E 016°50'2 4.2
2017-Oct-19 04:56N 40°13' E 016°49'2 1.8
2017-Oct-19 04:06N 40°12' E 016°48'1 2.7
2017-Oct-19 03:53N 40°11' E 016°48'2 0.4
2017-Oct-18 23:49N 40°13' E 016°49'0 0.6
2017-Oct-18 23:30N 40°13' E 016°48'1 2.4
2017-Oct-18 23:00N 40°12' E 016°48'1 2.7
2017-Oct-18 22:30N 40°11' E 016°48'2 2.7
2017-Oct-18 21:49N 40°09' E 016°47'1 2.7
2017-Oct-18 21:31N 40°08' E 016°46'2 2.6
2017-Oct-18 20:51N 40°07' E 016°45'2 2.7
2017-Oct-18 20:15N 40°05' E 016°44'1 2.8
2017-Oct-18 19:57N 40°04' E 016°43'1 2.7
2017-Oct-18 19:30N 40°03' E 016°43'2 2.6
2017-Oct-18 18:52N 40°02' E 016°42'1 2.6
2017-Oct-18 18:30N 40°01' E 016°41'1 2.7
2017-Oct-18 17:59N 39°60' E 016°40'1 2.6
2017-Oct-18 17:25N 39°58' E 016°40'3 6.8
2017-Oct-18 16:59N 39°55' E 016°41'6 2.1
2017-Oct-18 13:59N 40°01' E 016°44'1 2.4
2017-Oct-18 13:30N 40°02' E 016°45'1 2.1
2017-Oct-18 13:00N 40°02' E 016°46'1 1.7
2017-Oct-18 12:30N 40°03' E 016°47'1 2.6
2017-Oct-18 12:00N 40°04' E 016°48'1 2.6
2017-Oct-18 11:30N 40°05' E 016°48'1 2.6
2017-Oct-18 11:00N 40°07' E 016°49'1 2.7
2017-Oct-18 10:30N 40°08' E 016°49'1 2.6
2017-Oct-18 10:00N 40°09' E 016°50'1 2.6
2017-Oct-18 09:30N 40°10' E 016°51'2 3.2
2017-Oct-18 09:00N 40°12' E 016°50'0 0.7
2017-Oct-18 08:30N 40°11' E 016°50'1 2.6
2017-Oct-18 08:00N 40°10' E 016°49'1 2.6
2017-Oct-18 07:30N 40°09' E 016°48'1 2.6
2017-Oct-18 07:00N 40°08' E 016°48'1 2.6
2017-Oct-18 06:30N 40°07' E 016°47'1 2.6
2017-Oct-18 06:00N 40°05' E 016°47'1 2.5
2017-Oct-18 05:30N 40°04' E 016°46'1 2.9
2017-Oct-18 05:00N 40°03' E 016°45'3 5.8
2017-Oct-18 04:27N 40°02' E 016°41'1 2.0
2017-Oct-18 03:43N 40°04' E 016°42'1 2.6
2017-Oct-18 03:29N 40°04' E 016°43'2 2.7
2017-Oct-18 02:53N 40°05' E 016°44'1 2.5
2017-Oct-18 02:29N 40°06' E 016°45'2 2.5
2017-Oct-18 01:44N 40°08' E 016°46'1 2.6
2017-Oct-18 01:30N 40°08' E 016°46'2 2.7
2017-Oct-18 00:55N 40°10' E 016°47'1 2.8
2017-Oct-18 00:30N 40°11' E 016°48'1 2.8
2017-Oct-18 00:00N 40°12' E 016°48'0 0.9
2017-Oct-17 23:30N 40°13' E 016°48'1 2.4
2017-Oct-17 23:00N 40°11' E 016°48'1 2.5
2017-Oct-17 22:30N 40°10' E 016°47'1 2.6
2017-Oct-17 22:00N 40°09' E 016°47'1 2.7
2017-Oct-17 21:30N 40°08' E 016°46'1 2.6
2017-Oct-17 21:00N 40°07' E 016°45'1 2.6
2017-Oct-17 20:30N 40°06' E 016°44'1 2.5
2017-Oct-17 20:00N 40°04' E 016°44'1 2.6
2017-Oct-17 19:30N 40°03' E 016°43'1 2.7
2017-Oct-17 19:00N 40°02' E 016°42'2 4.9
2017-Oct-17 18:30N 40°05' E 016°42'1 1.8
2017-Oct-17 18:00N 40°04' E 016°42'1 2.6
2017-Oct-17 17:30N 40°03' E 016°41'1 2.6
2017-Oct-17 17:00N 40°02' E 016°40'1 2.7
2017-Oct-17 16:30N 40°00' E 016°39'1 2.7
2017-Oct-17 16:00N 39°59' E 016°39'3 6.1
2017-Oct-17 15:30N 39°56' E 016°38'5 9.3
2017-Oct-17 15:00N 39°53' E 016°34'1 1.6
2017-Oct-17 14:30N 39°53' E 016°33'2 3.1
2017-Oct-17 13:59N 39°53' E 016°35'3 7.0
2017-Oct-17 13:30N 39°54' E 016°39'1 1.7
2017-Oct-17 13:00N 39°54' E 016°40'1 2.9
2017-Oct-17 12:30N 39°55' E 016°42'1 2.8
2017-Oct-17 12:00N 39°56' E 016°43'1 2.7
2017-Oct-17 11:30N 39°57' E 016°43'2 2.7
2017-Oct-17 10:38N 39°60' E 016°44'0 2.7
2017-Oct-17 10:30N 39°60' E 016°44'2 2.7
2017-Oct-17 09:52N 40°01' E 016°45'0 1.2
2017-Oct-17 09:30N 40°02' E 016°46'1 1.6
2017-Oct-17 09:00N 40°02' E 016°47'2 2.6
2017-Oct-17 08:25N 40°04' E 016°47'1 2.7
2017-Oct-17 08:00N 40°05' E 016°48'1 2.6
2017-Oct-17 07:30N 40°06' E 016°48'1 2.6
2017-Oct-17 07:00N 40°07' E 016°49'1 2.6
2017-Oct-17 06:30N 40°08' E 016°49'1 2.6
2017-Oct-17 06:00N 40°09' E 016°50'1 2.6
2017-Oct-17 05:30N 40°11' E 016°50'1 2.4
2017-Oct-17 05:00N 40°12' E 016°49'1 2.5
2017-Oct-17 04:30N 40°12' E 016°48'1 2.5
2017-Oct-17 04:00N 40°11' E 016°48'1 2.5
2017-Oct-17 03:30N 40°10' E 016°47'1 2.5
2017-Oct-17 03:00N 40°09' E 016°46'1 2.4
2017-Oct-17 02:30N 40°07' E 016°46'1 2.3
2017-Oct-17 02:00N 40°06' E 016°45'0 1.0
2017-Oct-17 01:30N 40°07' E 016°46'1 2.7
2017-Oct-17 01:00N 40°08' E 016°46'1 2.7
2017-Oct-17 00:30N 40°09' E 016°47'1 2.8
2017-Oct-17 00:01N 40°10' E 016°48'2 3.1
2017-Oct-16 23:30N 40°12' E 016°48'0 0.5
2017-Oct-16 23:00N 40°12' E 016°48'1 2.4
2017-Oct-16 22:30N 40°11' E 016°48'1 2.4
2017-Oct-16 22:00N 40°10' E 016°47'1 2.4
2017-Oct-16 21:30N 40°09' E 016°46'1 2.5
2017-Oct-16 21:00N 40°08' E 016°46'1 2.5
2017-Oct-16 20:31N 40°07' E 016°45'1 2.5
2017-Oct-16 20:01N 40°05' E 016°44'1 2.6
2017-Oct-16 19:30N 40°04' E 016°43'1 2.6
2017-Oct-16 19:00N 40°03' E 016°43'2 2.5
2017-Oct-16 18:13N 40°01' E 016°42'0 1.7
2017-Oct-16 18:00N 40°01' E 016°41'3 5.3
2017-Oct-16 17:30N 40°02' E 016°45'1 1.1
2017-Oct-16 17:00N 40°02' E 016°45'1 2.5
2017-Oct-16 16:30N 40°03' E 016°46'1 2.6
2017-Oct-16 16:00N 40°05' E 016°46'1 2.7
2017-Oct-16 15:30N 40°06' E 016°47'1 2.7
2017-Oct-16 15:00N 40°07' E 016°48'1 2.7
2017-Oct-16 14:30N 40°08' E 016°48'3 2.9
2017-Oct-16 13:30N 40°11' E 016°50'1 1.4
2017-Oct-16 13:00N 40°11' E 016°51'1 2.2
2017-Oct-16 12:30N 40°10' E 016°50'1 2.6
2017-Oct-16 12:00N 40°09' E 016°50'1 2.6
2017-Oct-16 11:30N 40°07' E 016°49'1 2.7
2017-Oct-16 11:00N 40°06' E 016°49'1 2.6
2017-Oct-16 10:30N 40°05' E 016°48'1 2.7
2017-Oct-16 10:00N 40°04' E 016°47'1 2.5
2017-Oct-16 09:29N 40°03' E 016°46'8 2.3
2017-Oct-16 05:50N 40°10' E 016°50'1 2.7
2017-Oct-16 05:30N 40°11' E 016°50'1 3.0
2017-Oct-16 05:00N 40°12' E 016°49'1 1.7
2017-Oct-16 04:30N 40°11' E 016°48'1 2.5
2017-Oct-16 04:00N 40°10' E 016°47'1 2.5
2017-Oct-16 03:30N 40°09' E 016°47'1 2.5
2017-Oct-16 03:00N 40°08' E 016°46'1 2.5
2017-Oct-16 02:30N 40°07' E 016°46'1 2.6
2017-Oct-16 02:00N 40°06' E 016°45'1 1.8
2017-Oct-16 01:31N 40°05' E 016°44'1 2.2
2017-Oct-16 01:00N 40°04' E 016°43'1 2.8
2017-Oct-16 00:30N 40°03' E 016°42'1 2.8
2017-Oct-16 00:00N 40°02' E 016°42'1 2.7
2017-Oct-15 23:29N 40°00' E 016°41'1 2.7
2017-Oct-15 23:00N 39°59' E 016°41'1 2.7
2017-Oct-15 22:30N 39°58' E 016°40'1 2.6
2017-Oct-15 22:00N 39°57' E 016°40'7 0.6
2017-Oct-15 08:28N 39°52' E 016°32'1 0.0
2017-Oct-13 14:02N 39°52' E 016°33'0 5.7
2017-Oct-13 13:57N 39°53' E 016°33'0 0.2
2017-Oct-13 13:28N 39°53' E 016°33'4 7.2
2017-Oct-13 12:55N 39°52' E 016°38'4 3.1
2017-Oct-13 11:37N 39°55' E 016°42'1 2.8
2017-Oct-13 11:18N 39°56' E 016°43'1 2.8
2017-Oct-13 10:49N 39°57' E 016°43'1 2.6
2017-Oct-13 10:21N 39°58' E 016°44'1 2.6
2017-Oct-13 09:53N 39°59' E 016°44'4 2.0
2017-Oct-13 07:59N 40°03' E 016°46'2 2.7
2017-Oct-13 07:04N 40°05' E 016°47'1 2.7
2017-Oct-13 06:46N 40°06' E 016°47'1 2.6
2017-Oct-13 06:30N 40°07' E 016°48'3 2.6
2017-Oct-13 05:10N 40°10' E 016°50'1 2.5
2017-Oct-13 04:38N 40°11' E 016°50'0 2.5
2017-Oct-13 04:30N 40°11' E 016°50'1 2.0
2017-Oct-13 04:00N 40°11' E 016°49'1 1.4
2017-Oct-13 03:30N 40°11' E 016°48'1 2.7
2017-Oct-13 03:00N 40°10' E 016°47'1 2.6
2017-Oct-13 02:30N 40°09' E 016°46'1 2.7
2017-Oct-13 02:00N 40°08' E 016°45'2 2.5
2017-Oct-13 01:12N 40°06' E 016°45'1 2.6
2017-Oct-13 00:45N 40°05' E 016°44'1 2.7
2017-Oct-13 00:30N 40°04' E 016°43'1 2.7
2017-Oct-13 00:00N 40°03' E 016°43'1 2.8
2017-Oct-12 23:29N 40°02' E 016°42'1 2.6
2017-Oct-12 23:00N 40°01' E 016°41'1 2.5
2017-Oct-12 22:28N 39°59' E 016°40'1 2.3
2017-Oct-12 21:59N 39°58' E 016°40'1 2.0
2017-Oct-12 21:20N 39°60' E 016°40'6 2.0
2017-Oct-12 18:23N 40°05' E 016°43'1 2.8
2017-Oct-12 17:51N 40°04' E 016°42'1 2.8
2017-Oct-12 17:30N 40°03' E 016°41'1 2.8
2017-Oct-12 17:00N 40°02' E 016°40'1 2.8
2017-Oct-12 16:30N 40°01' E 016°39'1 2.8
2017-Oct-12 16:00N 39°59' E 016°39'2 4.2
2017-Oct-12 15:28N 39°57' E 016°39'4 9.2
2017-Oct-12 15:00N 39°54' E 016°35'2 4.4
2017-Oct-12 14:31N 39°53' E 016°33'4 7.4
2017-Oct-12 13:59N 39°55' E 016°37'9 9.1
2017-Oct-12 12:58N 40°02' E 016°45'9 2.6
2017-Oct-12 09:31N 40°10' E 016°51'0 2.4
2017-Oct-12 09:30N 40°10' E 016°51'2 2.2
2017-Oct-12 08:23N 40°12' E 016°50'1 1.4
2017-Oct-12 07:46N 40°11' E 016°50'1 2.5
2017-Oct-12 07:27N 40°10' E 016°50'1 2.5
2017-Oct-12 07:00N 40°09' E 016°50'1 2.5
2017-Oct-12 06:30N 40°08' E 016°49'2 2.5
2017-Oct-12 05:45N 40°07' E 016°48'3 2.2
2017-Oct-12 04:17N 40°04' E 016°50'2 3.7
2017-Oct-12 03:45N 40°03' E 016°48'4 2.0
2017-Oct-12 01:50N 40°07' E 016°50'7 2.6
2017-Oct-11 23:08N 40°14' E 016°53'0 1.5
2017-Oct-11 23:00N 40°14' E 016°53'1 1.2
2017-Oct-11 22:30N 40°13' E 016°53'1 2.5
2017-Oct-11 22:01N 40°12' E 016°52'1 2.5
2017-Oct-11 21:28N 40°11' E 016°51'3 2.5
2017-Oct-11 20:24N 40°08' E 016°50'1 2.5
2017-Oct-11 19:58N 40°07' E 016°49'8 2.4
2017-Oct-11 16:44N 40°02' E 016°42'  
Track history (hours):
 
Tides and Currents Weather Stations Pressure Air Temp Water Temp Dewpoint Dewpoint Depression Visibility Wind Speed Wind Dir Waves Ship Positions

Nicola Andrea

Last reported at 2017-Oct-19 06:20 UTC. Time now 2017-Oct-19 09:15 UTC.
Position N 40°09' E 016°50'.

Length 21 m; draft 2.8 m.

Type: Fishing. MMSI: 247134160.

Date/timePositionNaut miles runAvg speedWind from/ knotsBaromVisibWave heightAir tempDewpointWater temp
2017-Oct-19 06:20N 40°09' E 016°50'1 2.7
2017-Oct-19 05:59N 40°10' E 016°50'1 2.6
2017-Oct-19 05:30N 40°11' E 016°50'2 4.2
2017-Oct-19 04:56N 40°13' E 016°49'2 1.8
2017-Oct-19 04:06N 40°12' E 016°48'1 2.7
2017-Oct-19 03:53N 40°11' E 016°48'2 0.4
2017-Oct-18 23:49N 40°13' E 016°49'0 0.6
2017-Oct-18 23:30N 40°13' E 016°48'1 2.4
2017-Oct-18 23:00N 40°12' E 016°48'1 2.7
2017-Oct-18 22:30N 40°11' E 016°48'2 2.7
2017-Oct-18 21:49N 40°09' E 016°47'1 2.7
2017-Oct-18 21:31N 40°08' E 016°46'2 2.6
2017-Oct-18 20:51N 40°07' E 016°45'2 2.7
2017-Oct-18 20:15N 40°05' E 016°44'1 2.8
2017-Oct-18 19:57N 40°04' E 016°43'1 2.7
2017-Oct-18 19:30N 40°03' E 016°43'2 2.6
2017-Oct-18 18:52N 40°02' E 016°42'1 2.6
2017-Oct-18 18:30N 40°01' E 016°41'1 2.7
2017-Oct-18 17:59N 39°60' E 016°40'1 2.6
2017-Oct-18 17:25N 39°58' E 016°40'3 6.8
2017-Oct-18 16:59N 39°55' E 016°41'6 2.1
2017-Oct-18 13:59N 40°01' E 016°44'1 2.4
2017-Oct-18 13:30N 40°02' E 016°45'1 2.1
2017-Oct-18 13:00N 40°02' E 016°46'1 1.7
2017-Oct-18 12:30N 40°03' E 016°47'1 2.6
2017-Oct-18 12:00N 40°04' E 016°48'1 2.6
2017-Oct-18 11:30N 40°05' E 016°48'1 2.6
2017-Oct-18 11:00N 40°07' E 016°49'1 2.7
2017-Oct-18 10:30N 40°08' E 016°49'1 2.6
2017-Oct-18 10:00N 40°09' E 016°50'1 2.6
2017-Oct-18 09:30N 40°10' E 016°51'2 3.2
2017-Oct-18 09:00N 40°12' E 016°50'0 0.7
2017-Oct-18 08:30N 40°11' E 016°50'1 2.6
2017-Oct-18 08:00N 40°10' E 016°49'1 2.6
2017-Oct-18 07:30N 40°09' E 016°48'1 2.6
2017-Oct-18 07:00N 40°08' E 016°48'1 2.6
2017-Oct-18 06:30N 40°07' E 016°47'1 2.6
2017-Oct-18 06:00N 40°05' E 016°47'1 2.5
2017-Oct-18 05:30N 40°04' E 016°46'1 2.9
2017-Oct-18 05:00N 40°03' E 016°45'3 5.8
2017-Oct-18 04:27N 40°02' E 016°41'1 2.0
2017-Oct-18 03:43N 40°04' E 016°42'1 2.6
2017-Oct-18 03:29N 40°04' E 016°43'2 2.7
2017-Oct-18 02:53N 40°05' E 016°44'1 2.5
2017-Oct-18 02:29N 40°06' E 016°45'2 2.5
2017-Oct-18 01:44N 40°08' E 016°46'1 2.6
2017-Oct-18 01:30N 40°08' E 016°46'2 2.7
2017-Oct-18 00:55N 40°10' E 016°47'1 2.8
2017-Oct-18 00:30N 40°11' E 016°48'1 2.8
2017-Oct-18 00:00N 40°12' E 016°48'0 0.9
2017-Oct-17 23:30N 40°13' E 016°48'1 2.4
2017-Oct-17 23:00N 40°11' E 016°48'1 2.5
2017-Oct-17 22:30N 40°10' E 016°47'1 2.6
2017-Oct-17 22:00N 40°09' E 016°47'1 2.7
2017-Oct-17 21:30N 40°08' E 016°46'1 2.6
2017-Oct-17 21:00N 40°07' E 016°45'1 2.6
2017-Oct-17 20:30N 40°06' E 016°44'1 2.5
2017-Oct-17 20:00N 40°04' E 016°44'1 2.6
2017-Oct-17 19:30N 40°03' E 016°43'1 2.7
2017-Oct-17 19:00N 40°02' E 016°42'2 4.9
2017-Oct-17 18:30N 40°05' E 016°42'1 1.8
2017-Oct-17 18:00N 40°04' E 016°42'1 2.6
2017-Oct-17 17:30N 40°03' E 016°41'1 2.6
2017-Oct-17 17:00N 40°02' E 016°40'1 2.7
2017-Oct-17 16:30N 40°00' E 016°39'1 2.7
2017-Oct-17 16:00N 39°59' E 016°39'3 6.1
2017-Oct-17 15:30N 39°56' E 016°38'5 9.3
2017-Oct-17 15:00N 39°53' E 016°34'1 1.6
2017-Oct-17 14:30N 39°53' E 016°33'2 3.1
2017-Oct-17 13:59N 39°53' E 016°35'3 7.0
2017-Oct-17 13:30N 39°54' E 016°39'1 1.7
2017-Oct-17 13:00N 39°54' E 016°40'1 2.9
2017-Oct-17 12:30N 39°55' E 016°42'1 2.8
2017-Oct-17 12:00N 39°56' E 016°43'1 2.7
2017-Oct-17 11:30N 39°57' E 016°43'2 2.7
2017-Oct-17 10:38N 39°60' E 016°44'0 2.7
2017-Oct-17 10:30N 39°60' E 016°44'2 2.7
2017-Oct-17 09:52N 40°01' E 016°45'0 1.2
2017-Oct-17 09:30N 40°02' E 016°46'1 1.6
2017-Oct-17 09:00N 40°02' E 016°47'2 2.6
2017-Oct-17 08:25N 40°04' E 016°47'1 2.7
2017-Oct-17 08:00N 40°05' E 016°48'1 2.6
2017-Oct-17 07:30N 40°06' E 016°48'1 2.6
2017-Oct-17 07:00N 40°07' E 016°49'1 2.6
2017-Oct-17 06:30N 40°08' E 016°49'1 2.6
2017-Oct-17 06:00N 40°09' E 016°50'1 2.6
2017-Oct-17 05:30N 40°11' E 016°50'1 2.4
2017-Oct-17 05:00N 40°12' E 016°49'1 2.5
2017-Oct-17 04:30N 40°12' E 016°48'1 2.5
2017-Oct-17 04:00N 40°11' E 016°48'1 2.5
2017-Oct-17 03:30N 40°10' E 016°47'1 2.5
2017-Oct-17 03:00N 40°09' E 016°46'1 2.4
2017-Oct-17 02:30N 40°07' E 016°46'1 2.3
2017-Oct-17 02:00N 40°06' E 016°45'0 1.0
2017-Oct-17 01:30N 40°07' E 016°46'1 2.7
2017-Oct-17 01:00N 40°08' E 016°46'1 2.7
2017-Oct-17 00:30N 40°09' E 016°47'1 2.8
2017-Oct-17 00:01N 40°10' E 016°48'2 3.1
2017-Oct-16 23:30N 40°12' E 016°48'0 0.5
2017-Oct-16 23:00N 40°12' E 016°48'1 2.4
2017-Oct-16 22:30N 40°11' E 016°48'1 2.4
2017-Oct-16 22:00N 40°10' E 016°47'1 2.4
2017-Oct-16 21:30N 40°09' E 016°46'1 2.5
2017-Oct-16 21:00N 40°08' E 016°46'1 2.5
2017-Oct-16 20:31N 40°07' E 016°45'1 2.5
2017-Oct-16 20:01N 40°05' E 016°44'1 2.6
2017-Oct-16 19:30N 40°04' E 016°43'1 2.6
2017-Oct-16 19:00N 40°03' E 016°43'2 2.5
2017-Oct-16 18:13N 40°01' E 016°42'0 1.7
2017-Oct-16 18:00N 40°01' E 016°41'3 5.3
2017-Oct-16 17:30N 40°02' E 016°45'1 1.1
2017-Oct-16 17:00N 40°02' E 016°45'1 2.5
2017-Oct-16 16:30N 40°03' E 016°46'1 2.6
2017-Oct-16 16:00N 40°05' E 016°46'1 2.7
2017-Oct-16 15:30N 40°06' E 016°47'1 2.7
2017-Oct-16 15:00N 40°07' E 016°48'1 2.7
2017-Oct-16 14:30N 40°08' E 016°48'3 2.9
2017-Oct-16 13:30N 40°11' E 016°50'1 1.4
2017-Oct-16 13:00N 40°11' E 016°51'1 2.2
2017-Oct-16 12:30N 40°10' E 016°50'1 2.6
2017-Oct-16 12:00N 40°09' E 016°50'1 2.6
2017-Oct-16 11:30N 40°07' E 016°49'1 2.7
2017-Oct-16 11:00N 40°06' E 016°49'1 2.6
2017-Oct-16 10:30N 40°05' E 016°48'1 2.7
2017-Oct-16 10:00N 40°04' E 016°47'1 2.5
2017-Oct-16 09:29N 40°03' E 016°46'8 2.3
2017-Oct-16 05:50N 40°10' E 016°50'1 2.7
2017-Oct-16 05:30N 40°11' E 016°50'1 3.0
2017-Oct-16 05:00N 40°12' E 016°49'1 1.7
2017-Oct-16 04:30N 40°11' E 016°48'1 2.5
2017-Oct-16 04:00N 40°10' E 016°47'1 2.5
2017-Oct-16 03:30N 40°09' E 016°47'1 2.5
2017-Oct-16 03:00N 40°08' E 016°46'1 2.5
2017-Oct-16 02:30N 40°07' E 016°46'1 2.6
2017-Oct-16 02:00N 40°06' E 016°45'1 1.8
2017-Oct-16 01:31N 40°05' E 016°44'1 2.2
2017-Oct-16 01:00N 40°04' E 016°43'1 2.8
2017-Oct-16 00:30N 40°03' E 016°42'1 2.8
2017-Oct-16 00:00N 40°02' E 016°42'1 2.7
2017-Oct-15 23:29N 40°00' E 016°41'1 2.7
2017-Oct-15 23:00N 39°59' E 016°41'1 2.7
2017-Oct-15 22:30N 39°58' E 016°40'1 2.6
2017-Oct-15 22:00N 39°57' E 016°40'7 0.6
2017-Oct-15 08:28N 39°52' E 016°32'1 0.0
2017-Oct-13 14:02N 39°52' E 016°33'0 5.7
2017-Oct-13 13:57N 39°53' E 016°33'0 0.2
2017-Oct-13 13:28N 39°53' E 016°33'4 7.2
2017-Oct-13 12:55N 39°52' E 016°38'4 3.1
2017-Oct-13 11:37N 39°55' E 016°42'1 2.8
2017-Oct-13 11:18N 39°56' E 016°43'1 2.8
2017-Oct-13 10:49N 39°57' E 016°43'1 2.6
2017-Oct-13 10:21N 39°58' E 016°44'1 2.6
2017-Oct-13 09:53N 39°59' E 016°44'4 2.0
2017-Oct-13 07:59N 40°03' E 016°46'2 2.7
2017-Oct-13 07:04N 40°05' E 016°47'1 2.7
2017-Oct-13 06:46N 40°06' E 016°47'1 2.6
2017-Oct-13 06:30N 40°07' E 016°48'3 2.6
2017-Oct-13 05:10N 40°10' E 016°50'1 2.5
2017-Oct-13 04:38N 40°11' E 016°50'0 2.5
2017-Oct-13 04:30N 40°11' E 016°50'1 2.0
2017-Oct-13 04:00N 40°11' E 016°49'1 1.4
2017-Oct-13 03:30N 40°11' E 016°48'1 2.7
2017-Oct-13 03:00N 40°10' E 016°47'1 2.6
2017-Oct-13 02:30N 40°09' E 016°46'1 2.7
2017-Oct-13 02:00N 40°08' E 016°45'2 2.5
2017-Oct-13 01:12N 40°06' E 016°45'1 2.6
2017-Oct-13 00:45N 40°05' E 016°44'1 2.7
2017-Oct-13 00:30N 40°04' E 016°43'1 2.7
2017-Oct-13 00:00N 40°03' E 016°43'1 2.8
2017-Oct-12 23:29N 40°02' E 016°42'1 2.6
2017-Oct-12 23:00N 40°01' E 016°41'1 2.5
2017-Oct-12 22:28N 39°59' E 016°40'1 2.3
2017-Oct-12 21:59N 39°58' E 016°40'1 2.0
2017-Oct-12 21:20N 39°60' E 016°40'6 2.0
2017-Oct-12 18:23N 40°05' E 016°43'1 2.8
2017-Oct-12 17:51N 40°04' E 016°42'1 2.8
2017-Oct-12 17:30N 40°03' E 016°41'1 2.8
2017-Oct-12 17:00N 40°02' E 016°40'1 2.8
2017-Oct-12 16:30N 40°01' E 016°39'1 2.8
2017-Oct-12 16:00N 39°59' E 016°39'2 4.2
2017-Oct-12 15:28N 39°57' E 016°39'4 9.2
2017-Oct-12 15:00N 39°54' E 016°35'2 4.4
2017-Oct-12 14:31N 39°53' E 016°33'4 7.4
2017-Oct-12 13:59N 39°55' E 016°37'9 9.1
2017-Oct-12 12:58N 40°02' E 016°45'9 2.6
2017-Oct-12 09:31N 40°10' E 016°51'0 2.4
2017-Oct-12 09:30N 40°10' E 016°51'2 2.2
2017-Oct-12 08:23N 40°12' E 016°50'1 1.4
2017-Oct-12 07:46N 40°11' E 016°50'1 2.5
2017-Oct-12 07:27N 40°10' E 016°50'1 2.5
2017-Oct-12 07:00N 40°09' E 016°50'1 2.5
2017-Oct-12 06:30N 40°08' E 016°49'2 2.5
2017-Oct-12 05:45N 40°07' E 016°48'3 2.2
2017-Oct-12 04:17N 40°04' E 016°50'2 3.7
2017-Oct-12 03:45N 40°03' E 016°48'4 2.0
2017-Oct-12 01:50N 40°07' E 016°50'7 2.6
2017-Oct-11 23:08N 40°14' E 016°53'0 1.5
2017-Oct-11 23:00N 40°14' E 016°53'1 1.2
2017-Oct-11 22:30N 40°13' E 016°53'1 2.5
2017-Oct-11 22:01N 40°12' E 016°52'1 2.5
2017-Oct-11 21:28N 40°11' E 016°51'3 2.5
2017-Oct-11 20:24N 40°08' E 016°50'1 2.5
2017-Oct-11 19:58N 40°07' E 016°49'8 2.4
2017-Oct-11 16:44N 40°02' E 016°42'  

Dump ship's entire track history